Time;durP1;ratioP1;P1;durP2;ratioP2;P2;SDS_P1;SDS_P2;PMS_P1;PMS_P2;Temp;Humidity;BMP_temperature;BMP_pressure;BME280_temperature;BME280_humidity;BME280_pressure;Samples;Min_cycle;Max_cycle;Signal;HPM_P1;HPM_P2
2022/08/27 00:00:34;;;;;;;12.43;7.20;;;;;;;22.16;65.01;92640.66;2070960;69;20611;-76
2022/08/27 00:03:00;;;;;;;15.68;7.00;;;;;;;22.50;62.77;92649.84;2071013;69;20235;-76
2022/08/27 00:05:26;;;;;;;10.80;6.55;;;;;;;22.45;62.61;92654.06;2070979;69;20249;-76
2022/08/27 00:07:52;;;;;;;11.05;6.55;;;;;;;22.55;60.20;92656.38;2067632;69;20255;-78
2022/08/27 00:10:23;;;;;;;8.80;6.40;;;;;;;22.47;62.54;92656.22;2071468;69;20269;-76
2022/08/27 00:12:49;;;;;;;8.95;6.05;;;;;;;22.31;62.18;92654.56;2071608;69;20206;-77
2022/08/27 00:15:16;;;;;;;8.40;5.80;;;;;;;22.04;61.51;92650.50;2071114;69;20615;-76
2022/08/27 00:17:44;;;;;;;10.65;6.70;;;;;;;22.16;61.80;92658.59;2068098;69;20199;-74
2022/08/27 00:20:14;;;;;;;11.23;6.32;;;;;;;22.13;63.18;92664.97;2068276;69;20188;-76
2022/08/27 00:22:40;;;;;;;8.63;5.40;;;;;;;22.03;61.73;92665.50;2064601;69;20159;-76
2022/08/27 00:25:07;;;;;;;5.00;3.80;;;;;;;21.98;60.94;92661.81;2069586;69;20218;-76
2022/08/27 00:27:32;;;;;;;7.85;3.33;;;;;;;22.06;60.35;92670.56;2071170;69;20255;-75
2022/08/27 00:29:59;;;;;;;6.68;3.20;;;;;;;21.65;63.72;92676.97;2071535;69;20529;-76
2022/08/27 00:32:25;;;;;;;3.67;2.15;;;;;;;21.72;62.38;92678.56;2071557;69;20138;-76
2022/08/27 00:34:52;;;;;;;2.88;1.80;;;;;;;21.92;60.03;92676.06;2071164;69;20284;-75
2022/08/27 00:37:18;;;;;;;6.00;2.25;;;;;;;21.77;60.83;92671.50;2071169;69;20492;-75
2022/08/27 00:39:44;;;;;;;4.90;2.55;;;;;;;21.55;62.10;92678.22;2070932;69;20559;-76
2022/08/27 00:42:10;;;;;;;5.70;2.10;;;;;;;21.69;60.25;92669.19;2070944;69;20140;-77
2022/08/27 00:44:37;;;;;;;4.70;1.75;;;;;;;21.25;63.53;92672.56;2071227;69;20475;-75
2022/08/27 00:47:09;;;;;;;3.60;1.98;;;;;;;21.40;62.79;92679.38;2071311;69;20168;-75
2022/08/27 00:49:57;;;;;;;9.27;2.15;;;;;;;21.39;63.04;92677.16;2071353;69;20148;-76
2022/08/27 00:52:34;;;;;;;6.32;2.15;;;;;;;21.12;63.72;92667.28;2071134;69;20183;-75
2022/08/27 00:55:13;;;;;;;4.50;2.03;;;;;;;21.39;61.73;92668.59;2067788;69;20157;-76
2022/08/27 00:57:42;;;;;;;6.55;2.28;;;;;;;21.22;63.48;92670.38;2067821;69;20147;-75
2022/08/27 01:00:11;;;;;;;7.30;2.30;;;;;;;21.12;64.09;92670.16;2071435;69;20148;-75
2022/08/27 01:02:39;;;;;;;3.83;2.50;;;;;;;21.38;62.08;92670.00;2071008;69;20159;-75
2022/08/27 01:05:09;;;;;;;8.38;3.15;;;;;;;21.36;62.26;92661.38;2071311;69;20248;-76
2022/08/27 01:07:39;;;;;;;3.53;2.47;;;;;;;20.98;64.92;92656.25;2067917;69;20159;-76
2022/08/27 01:10:10;;;;;;;4.20;2.50;;;;;;;21.00;65.01;92645.59;2071211;69;20322;-76
2022/08/27 01:12:37;;;;;;;4.78;2.70;;;;;;;21.00;65.15;92644.88;2070952;69;20564;-75
2022/08/27 01:15:06;;;;;;;7.47;3.08;;;;;;;20.99;65.79;92643.44;2070825;69;20159;-76
2022/08/27 01:17:32;;;;;;;4.90;2.50;;;;;;;20.90;64.58;92645.38;2070981;69;20136;-75
2022/08/27 01:20:04;;;;;;;8.82;2.85;;;;;;;21.01;64.68;92635.59;2071013;69;20608;-76
2022/08/27 01:22:36;;;;;;;7.13;2.90;;;;;;;20.97;65.23;92637.66;2071309;69;20568;-75
2022/08/27 01:25:12;;;;;;;7.40;3.33;;;;;;;21.11;64.67;92637.94;2071342;69;20211;-75
2022/08/27 01:27:39;;;;;;;4.45;2.60;;;;;;;20.92;65.75;92625.38;2067709;69;20161;-76
2022/08/27 01:30:07;;;;;;;7.10;2.95;;;;;;;20.99;64.78;92626.25;2071394;69;20580;-76
2022/08/27 01:32:34;;;;;;;6.38;2.75;;;;;;;21.07;64.37;92629.28;2068235;69;20223;-75
2022/08/27 01:35:02;;;;;;;5.25;3.00;;;;;;;20.00;67.63;92631.84;2070801;69;20188;-74
2022/08/27 01:37:28;;;;;;;8.75;2.92;;;;;;;20.05;66.93;92629.81;2071062;69;20580;-76
2022/08/27 01:39:55;;;;;;;4.97;2.78;;;;;;;20.42;66.88;92630.69;2071125;69;20148;-76
2022/08/27 01:42:27;;;;;;;8.00;2.95;;;;;;;20.47;66.94;92620.78;2070537;69;20605;-75
2022/08/27 01:45:10;;;;;;;6.60;3.00;;;;;;;20.48;67.08;92617.28;2071111;69;20144;-75
2022/08/27 01:47:36;;;;;;;5.55;2.78;;;;;;;20.57;66.04;92601.03;2071035;69;20172;-76
2022/08/27 01:50:12;;;;;;;5.18;2.90;;;;;;;20.68;66.35;92610.56;2071041;69;20171;-76
2022/08/27 01:52:38;;;;;;;6.53;2.97;;;;;;;20.67;66.68;92604.13;2071063;69;20648;-75
2022/08/27 01:55:07;;;;;;;8.18;3.10;;;;;;;20.73;66.18;92609.97;2064936;69;20148;-74
2022/08/27 01:57:34;;;;;;;6.97;3.00;;;;;;;20.74;66.04;92602.09;2071143;69;20182;-75
2022/08/27 02:00:05;;;;;;;6.53;3.20;;;;;;;20.52;65.52;92596.63;2071221;69;20147;-74
2022/08/27 02:02:38;;;;;;;6.82;3.10;;;;;;;20.50;65.31;92594.44;2071076;69;20585;-75
2022/08/27 02:05:04;;;;;;;8.70;3.28;;;;;;;20.49;65.33;92587.28;2071248;69;20132;-75
2022/08/27 02:07:29;;;;;;;3.85;3.00;;;;;;;20.39;66.45;92597.72;2071047;69;20628;-75
2022/08/27 02:09:56;;;;;;;3.22;2.30;;;;;;;20.80;62.20;92590.78;2071076;69;20171;-74
2022/08/27 02:12:22;;;;;;;2.85;2.28;;;;;;;20.43;65.68;92592.09;2071109;69;20152;-75
2022/08/27 02:14:47;;;;;;;4.38;2.58;;;;;;;20.89;61.27;92585.97;2067461;69;20620;-74
2022/08/27 02:17:15;;;;;;;3.90;2.20;;;;;;;21.11;60.82;92577.13;2067509;69;20323;-75
2022/08/27 02:19:41;;;;;;;4.38;2.60;;;;;;;20.68;63.86;92576.97;2071112;69;20213;-75
2022/08/27 02:22:07;;;;;;;5.70;2.70;;;;;;;20.69;62.34;92578.41;2070929;69;20167;-75
2022/08/27 02:24:32;;;;;;;7.53;2.92;;;;;;;20.84;63.74;92575.84;2070770;69;21052;-75
2022/08/27 02:26:58;;;;;;;7.97;2.72;;;;;;;20.56;64.70;92568.84;2070867;69;20152;-76
2022/08/27 02:29:24;;;;;;;5.07;2.70;;;;;;;19.97;66.79;92578.19;2070929;69;20175;-75
2022/08/27 02:31:50;;;;;;;3.65;2.40;;;;;;;20.23;65.50;92575.22;2070829;69;20156;-75
2022/08/27 02:34:16;;;;;;;3.83;2.80;;;;;;;20.38;65.75;92573.41;2070879;69;20175;-75
2022/08/27 02:36:42;;;;;;;3.53;2.65;;;;;;;20.34;66.45;92564.75;2071287;69;20182;-75
2022/08/27 02:39:08;;;;;;;3.80;2.67;;;;;;;19.95;68.00;92570.31;2072434;69;20148;-73
2022/08/27 02:41:35;;;;;;;6.05;2.90;;;;;;;19.72;69.25;92574.00;2072062;69;20661;-74
2022/08/27 02:44:02;;;;;;;3.95;2.47;;;;;;;20.37;65.15;92569.81;2072939;69;20147;-73
2022/08/27 02:46:29;;;;;;;7.65;3.40;;;;;;;19.86;68.87;92574.38;2072640;69;20683;-75
2022/08/27 02:48:55;;;;;;;9.60;3.15;;;;;;;19.67;68.96;92573.19;2072425;69;20239;-74
2022/08/27 02:51:21;;;;;;;4.85;3.05;;;;;;;19.78;69.00;92577.00;2072974;69;20298;-75
2022/08/27 02:53:46;;;;;;;5.50;3.20;;;;;;;19.69;69.54;92575.34;2066784;69;20163;-74
2022/08/27 02:56:12;;;;;;;8.70;3.42;;;;;;;19.81;68.94;92581.38;2071313;69;20735;-75
2022/08/27 02:58:40;;;;;;;4.28;2.60;;;;;;;20.09;67.78;92574.91;2072129;69;20178;-74
2022/08/27 03:01:06;;;;;;;4.32;3.05;;;;;;;20.27;66.90;92569.59;2072311;69;20212;-74
2022/08/27 03:03:32;;;;;;;5.68;3.00;;;;;;;20.26;66.09;92573.88;2071989;69;20204;-73
2022/08/27 03:05:58;;;;;;;5.75;2.88;;;;;;;20.13;67.52;92575.00;2072176;69;20140;-74
2022/08/27 03:08:27;;;;;;;6.85;2.92;;;;;;;20.38;66.41;92573.41;2068236;69;20148;-74
2022/08/27 03:10:55;;;;;;;7.00;3.22;;;;;;;20.24;67.22;92565.25;2071431;69;20565;-74
2022/08/27 03:13:21;;;;;;;8.57;3.00;;;;;;;20.47;64.72;92566.47;2071915;69;20231;-73
2022/08/27 03:15:47;;;;;;;5.85;3.20;;;;;;;20.29;66.13;92566.78;2068295;69;20170;-73
2022/08/27 03:18:20;;;;;;;5.85;3.08;;;;;;;20.18;67.15;92554.41;2071776;69;20190;-74
2022/08/27 03:20:50;;;;;;;;;;;;;;;20.19;67.41;92558.72;2071699;69;20183;-75
2022/08/27 03:23:20;;;;;;;6.00;3.33;;;;;;;20.12;67.29;92557.13;2071352;69;20044;-75
2022/08/27 03:25:50;;;;;;;5.75;3.40;;;;;;;20.29;67.81;92550.34;2067961;69;20503;-75
2022/08/27 03:28:21;;;;;;;5.88;3.22;;;;;;;20.14;68.11;92556.44;2071460;69;20189;-75
2022/08/27 03:30:53;;;;;;;6.55;3.60;;;;;;;19.77;68.71;92547.72;2071120;69;20144;-75
2022/08/27 03:33:20;;;;;;;5.45;3.08;;;;;;;20.07;67.85;92544.16;2071283;69;20137;-74
2022/08/27 03:35:47;;;;;;;9.82;3.35;;;;;;;19.92;68.65;92553.78;2071128;69;20159;-74
2022/08/27 03:38:15;;;;;;;5.20;3.25;;;;;;;20.03;68.67;92556.22;2071267;69;20213;-74
2022/08/27 03:40:42;;;;;;;4.70;3.15;;;;;;;20.07;69.01;92558.44;2071439;69;20188;-75
2022/08/27 03:43:10;;;;;;;6.10;3.17;;;;;;;20.10;67.08;92557.06;2071410;69;20144;-75
2022/08/27 03:45:36;;;;;;;6.18;3.08;;;;;;;20.00;68.31;92551.84;2071206;69;20194;-74
2022/08/27 03:48:02;;;;;;;3.60;2.50;;;;;;;19.24;70.94;92546.38;2071251;69;20258;-75
2022/08/27 03:50:28;;;;;;;4.25;2.50;;;;;;;19.15;71.90;92541.88;2068385;69;20181;-75
2022/08/27 03:52:54;;;;;;;5.32;2.63;;;;;;;19.67;69.39;92538.91;2071264;69;20183;-74
2022/08/27 03:55:19;;;;;;;4.75;2.63;;;;;;;19.81;69.06;92549.97;2071393;69;20153;-75
2022/08/27 03:57:46;;;;;;;2.90;2.60;;;;;;;19.77;69.49;92539.16;2071467;69;20136;-75
2022/08/27 04:00:13;;;;;;;3.80;2.80;;;;;;;19.51;70.72;92532.78;2071605;69;20261;-75
2022/08/27 04:02:41;;;;;;;3.75;2.90;;;;;;;19.58;70.04;92530.81;2068132;69;20164;-75
2022/08/27 04:05:09;;;;;;;3.10;2.60;;;;;;;19.76;69.04;92531.28;2071756;69;20162;-76
2022/08/27 04:07:36;;;;;;;3.50;2.63;;;;;;;19.88;67.24;92537.25;2071314;69;20183;-74
2022/08/27 04:10:02;;;;;;;3.75;2.83;;;;;;;19.86;68.87;92531.50;2068068;69;20222;-75
2022/08/27 04:12:27;;;;;;;4.32;3.10;;;;;;;19.83;69.72;92535.72;2071251;69;20247;-75
2022/08/27 04:14:53;;;;;;;5.68;2.72;;;;;;;19.79;68.84;92533.50;2071474;69;20152;-74
2022/08/27 04:17:19;;;;;;;4.38;3.08;;;;;;;20.03;66.10;92529.78;2071435;69;20214;-75
2022/08/27 04:19:44;;;;;;;4.07;2.95;;;;;;;19.48;69.71;92529.16;2071431;69;20140;-75
2022/08/27 04:22:11;;;;;;;4.28;2.55;;;;;;;19.76;67.90;92532.00;2071591;69;20152;-75
2022/08/27 04:24:37;;;;;;;2.72;2.10;;;;;;;19.60;68.55;92523.03;2071203;69;20159;-75
2022/08/27 04:27:05;;;;;;;2.38;2.17;;;;;;;19.53;69.39;92527.84;2071523;69;20184;-75
2022/08/27 04:29:30;;;;;;;2.40;2.20;;;;;;;19.30;71.25;92532.28;2071531;69;20133;-75
2022/08/27 04:31:57;;;;;;;2.95;2.00;;;;;;;19.03;71.34;92525.13;2071451;69;20128;-75
2022/08/27 04:34:24;;;;;;;6.22;2.40;;;;;;;19.25;70.48;92521.44;2071568;69;20144;-76
2022/08/27 04:36:49;;;;;;;2.83;2.17;;;;;;;19.51;69.73;92519.22;2071334;69;20156;-78
2022/08/27 04:39:19;;;;;;;3.90;2.10;;;;;;;19.69;66.28;92526.81;2071472;69;20156;-75
2022/08/27 04:41:48;;;;;;;3.58;2.50;;;;;;;19.41;69.30;92526.81;2067724;69;20213;-75
2022/08/27 04:44:14;;;;;;;3.17;2.65;;;;;;;19.02;71.72;92535.09;2071228;69;20202;-75
2022/08/27 04:46:39;;;;;;;3.80;2.40;;;;;;;19.34;70.46;92531.66;2071430;69;20295;-75
2022/08/27 04:49:08;;;;;;;4.97;2.20;;;;;;;19.00;71.47;92531.47;2067961;69;20148;-75
2022/08/27 04:51:35;;;;;;;4.30;2.72;;;;;;;18.86;71.76;92539.63;2068045;69;20140;-75
2022/08/27 04:54:02;;;;;;;6.20;2.40;;;;;;;19.10;71.02;92543.13;2071154;69;20144;-75
2022/08/27 04:56:29;;;;;;;4.47;2.58;;;;;;;19.33;70.70;92546.56;2071252;69;20197;-75
2022/08/27 04:58:55;;;;;;;5.30;2.88;;;;;;;19.45;70.24;92547.63;2070975;69;20140;-75
2022/08/27 05:01:25;;;;;;;3.90;2.47;;;;;;;19.25;70.95;92552.81;2071580;69;20197;-75
2022/08/27 05:03:51;;;;;;;4.65;3.20;;;;;;;18.99;72.47;92556.41;2071553;69;20144;-75
2022/08/27 05:06:17;;;;;;;8.13;4.70;;;;;;;18.75;73.57;92553.63;2071476;69;20139;-75
2022/08/27 05:08:43;;;;;;;3.75;3.00;;;;;;;19.12;70.63;92548.19;2071480;69;20187;-76
2022/08/27 05:11:13;;;;;;;5.50;3.17;;;;;;;19.19;70.43;92544.81;2071294;69;20272;-76
2022/08/27 05:13:41;;;;;;;3.83;2.55;;;;;;;19.24;70.42;92542.78;2068039;69;20259;-76
2022/08/27 05:16:10;;;;;;;5.47;2.80;;;;;;;19.32;70.37;92551.56;2071223;69;20172;-75
2022/08/27 05:18:40;;;;;;;5.22;2.90;;;;;;;19.52;69.82;92545.66;2071402;69;20152;-75
2022/08/27 05:21:06;;;;;;;6.45;2.95;;;;;;;19.38;71.60;92540.31;2067864;69;20730;-75
2022/08/27 05:23:33;;;;;;;5.30;3.28;;;;;;;19.47;71.23;92544.84;2071180;69;20597;-75
2022/08/27 05:25:59;;;;;;;5.13;3.40;;;;;;;19.52;70.79;92545.66;2071222;69;20582;-75
2022/08/27 05:28:27;;;;;;;5.18;3.60;;;;;;;19.51;70.50;92547.03;2071255;69;20139;-76
2022/08/27 05:31:01;;;;;;;6.57;3.22;;;;;;;19.70;69.93;92545.41;2071248;69;20298;-75
2022/08/27 05:33:27;;;;;;;4.55;3.30;;;;;;;19.75;69.63;92541.97;2071452;69;20175;-76
2022/08/27 05:35:55;;;;;;;4.07;2.92;;;;;;;19.55;70.07;92545.00;2071250;69;20140;-74
2022/08/27 05:38:23;;;;;;;4.43;2.83;;;;;;;19.68;69.76;92542.50;2071398;69;20140;-74
2022/08/27 05:41:01;;;;;;;5.75;3.25;;;;;;;19.72;69.68;92545.47;2071305;69;20144;-74
2022/08/27 05:43:27;;;;;;;6.13;2.92;;;;;;;19.13;72.93;92538.94;2068209;69;20149;-74
2022/08/27 05:45:53;;;;;;;5.45;2.88;;;;;;;18.90;73.95;92548.31;2069019;69;20724;-75
2022/08/27 05:48:19;;;;;;;6.97;3.13;;;;;;;18.68;74.90;92543.41;2071282;69;20168;-74
2022/08/27 05:50:44;;;;;;;4.53;2.92;;;;;;;18.56;75.89;92542.34;2067960;69;20171;-75
2022/08/27 05:53:11;;;;;;;3.25;2.88;;;;;;;18.82;74.21;92542.38;2071222;69;20140;-75
2022/08/27 05:55:43;;;;;;;4.70;3.20;;;;;;;18.52;75.74;92548.66;2071146;69;20142;-74
2022/08/27 06:01:03;;;;;;;3.50;2.88;;;;;;;19.15;71.95;92549.69;2070997;69;20148;-74
2022/08/27 06:01:03;;;;;;;3.67;2.88;;;;;;;19.30;71.22;92549.38;2071301;69;20140;-74
2022/08/27 06:03:32;;;;;;;5.57;3.33;;;;;;;19.46;69.98;92551.19;2071224;69;20175;-75
2022/08/27 06:06:02;;;;;;;3.63;2.90;;;;;;;19.47;71.73;92553.41;2071057;69;20147;-76
2022/08/27 06:08:28;;;;;;;3.95;2.83;;;;;;;19.56;70.44;92551.44;2071005;69;20235;-75
2022/08/27 06:10:55;;;;;;;4.10;2.72;;;;;;;19.65;69.42;92555.25;2070976;69;20250;-75
2022/08/27 06:13:21;;;;;;;3.85;3.13;;;;;;;19.63;70.76;92553.09;2071174;69;20163;-75
2022/08/27 06:15:47;;;;;;;3.40;2.78;;;;;;;19.57;71.16;92555.06;2070858;69;20148;-75
2022/08/27 06:18:13;;;;;;;4.47;3.50;;;;;;;19.60;70.08;92562.25;2071267;69;20578;-74
2022/08/27 06:20:39;;;;;;;4.72;3.38;;;;;;;19.17;72.72;92555.44;2071119;69;20176;-73
2022/08/27 06:23:04;;;;;;;3.80;3.47;;;;;;;19.33;72.22;92558.72;2071487;69;20205;-74
2022/08/27 06:25:31;;;;;;;5.25;3.30;;;;;;;19.63;71.29;92561.66;2071177;69;20166;-74
2022/08/27 06:28:00;;;;;;;5.28;3.50;;;;;;;19.37;71.61;92567.38;2071179;69;20236;-76
2022/08/27 06:30:26;;;;;;;4.63;3.08;;;;;;;19.25;72.00;92569.94;2071202;69;20176;-76
2022/08/27 06:32:52;;;;;;;3.95;3.13;;;;;;;19.53;71.40;92564.25;2071073;69;20152;-75
2022/08/27 06:35:17;;;;;;;4.05;3.25;;;;;;;19.91;69.81;92566.63;2071019;69;20171;-77
2022/08/27 06:37:44;;;;;;;7.22;3.63;;;;;;;20.01;68.44;92561.13;2071360;69;20140;-76
2022/08/27 06:40:10;;;;;;;3.95;3.10;;;;;;;20.18;68.42;92559.41;2067903;69;20137;-74
2022/08/27 06:42:38;;;;;;;3.83;3.30;;;;;;;20.34;68.00;92562.59;2070947;69;20566;-76
2022/08/27 06:45:04;;;;;;;6.28;2.95;;;;;;;20.40;68.32;92564.91;2067764;69;20213;-75
2022/08/27 06:47:31;;;;;;;4.38;3.22;;;;;;;20.57;66.17;92566.72;2070969;69;20219;-76
2022/08/27 06:49:57;;;;;;;3.35;2.95;;;;;;;20.67;66.94;92572.66;2070966;69;20592;-74
2022/08/27 06:52:23;;;;;;;4.25;3.35;;;;;;;20.69;68.18;92578.41;2071100;69;20221;-75
2022/08/27 06:54:49;;;;;;;5.93;3.38;;;;;;;20.69;67.37;92569.13;2070898;69;20151;-76
2022/08/27 06:57:15;;;;;;;4.78;3.85;;;;;;;20.80;67.52;92577.25;2070911;69;20184;-76
2022/08/27 06:59:42;;;;;;;4.32;3.63;;;;;;;20.97;66.94;92572.56;2067740;69;20620;-76
2022/08/27 07:02:10;;;;;;;5.25;3.90;;;;;;;21.01;67.82;92566.91;2071036;69;20203;-75
2022/08/27 07:04:36;;;;;;;4.75;3.85;;;;;;;21.11;67.97;92562.81;2067853;69;20523;-76
2022/08/27 07:07:03;;;;;;;3.40;3.10;;;;;;;21.31;66.41;92566.09;2070165;69;20159;-75
2022/08/27 07:09:30;;;;;;;5.07;3.85;;;;;;;21.17;67.46;92565.81;2070776;69;20197;-76
2022/08/27 07:11:58;;;;;;;4.50;3.33;;;;;;;21.45;63.10;92565.63;2070598;69;20240;-75
2022/08/27 07:14:24;;;;;;;5.05;3.58;;;;;;;21.42;65.87;92569.88;2066560;69;20210;-75
2022/08/27 07:16:51;;;;;;;5.50;3.45;;;;;;;21.62;64.26;92575.94;2070667;69;20172;-75
2022/08/27 07:19:17;;;;;;;4.68;3.28;;;;;;;21.65;63.68;92576.72;2070498;69;20144;-76
2022/08/27 07:21:43;;;;;;;5.72;3.55;;;;;;;21.67;64.16;92571.75;2071090;69;20175;-75
2022/08/27 07:24:11;;;;;;;3.83;3.10;;;;;;;21.67;63.22;92571.00;2070694;69;20467;-76
2022/08/27 07:26:40;;;;;;;6.53;3.20;;;;;;;21.68;64.77;92572.50;2067581;69;20159;-76
2022/08/27 07:29:07;;;;;;;4.10;3.30;;;;;;;21.77;62.90;92571.94;2070851;69;20604;-77
2022/08/27 07:31:34;;;;;;;3.25;2.95;;;;;;;22.06;61.89;92572.41;2070945;69;20183;-75
2022/08/27 07:34:01;;;;;;;3.47;3.17;;;;;;;22.12;61.20;92583.97;2070900;69;20148;-75
2022/08/27 07:36:27;;;;;;;4.82;3.20;;;;;;;22.04;63.14;92581.69;2067368;69;20144;-73
2022/08/27 07:38:53;;;;;;;3.67;2.85;;;;;;;21.91;62.94;92580.03;2071078;69;20162;-73
2022/08/27 07:41:19;;;;;;;3.40;2.80;;;;;;;21.76;63.20;92579.09;2067788;69;20141;-76
2022/08/27 07:46:30;;;;;;;3.95;3.05;;;;;;;21.98;63.39;92575.13;2070994;69;20224;-76
2022/08/27 07:48:56;;;;;;;4.55;3.15;;;;;;;21.77;64.77;92576.94;2071261;69;20156;-76
2022/08/27 07:51:25;;;;;;;4.03;3.10;;;;;;;21.66;66.08;92576.03;2071323;69;20164;-77
2022/08/27 07:53:52;;;;;;;5.00;3.00;;;;;;;21.83;63.72;92580.63;2071412;69;20214;-76
2022/08/27 07:56:21;;;;;;;3.20;2.90;;;;;;;21.67;65.74;92576.75;2071354;69;20236;-75
2022/08/27 07:58:47;;;;;;;4.72;3.10;;;;;;;21.70;65.59;92581.09;2069632;69;20487;-77
2022/08/27 08:01:14;;;;;;;5.22;2.90;;;;;;;21.75;66.37;92585.50;2067990;69;20186;-78
2022/08/27 08:03:40;;;;;;;5.70;3.05;;;;;;;21.81;65.34;92583.47;2071420;69;20152;-77
2022/08/27 08:06:12;;;;;;;4.57;3.20;;;;;;;21.72;67.55;92589.75;2068012;69;20200;-76
2022/08/27 08:08:39;;;;;;;4.32;2.78;;;;;;;21.77;63.68;92577.66;2068133;69;20481;-76
2022/08/27 08:11:10;;;;;;;6.20;3.00;;;;;;;21.77;64.41;92597.72;2068203;69;20132;-77
2022/08/27 08:13:35;;;;;;;4.45;2.90;;;;;;;21.85;64.13;92594.25;2070434;69;20152;-78
2022/08/27 08:16:02;;;;;;;4.30;2.60;;;;;;;21.96;63.89;92592.31;2064383;69;20167;-77
2022/08/27 08:18:28;;;;;;;4.35;2.70;;;;;;;21.92;64.52;92589.38;2064628;69;20168;-75
2022/08/27 08:21:05;;;;;;;3.38;2.60;;;;;;;21.96;65.03;92593.03;2064175;69;20145;-77
2022/08/27 08:23:32;;;;;;;4.72;2.67;;;;;;;22.00;65.69;92601.69;2064886;69;20157;-77
2022/08/27 08:25:59;;;;;;;2.85;2.45;;;;;;;22.05;64.85;92600.34;2064681;69;20257;-77
2022/08/27 08:28:26;;;;;;;7.03;2.80;;;;;;;22.00;65.21;92598.81;2064541;69;20497;-76
2022/08/27 08:30:54;;;;;;;2.80;2.50;;;;;;;22.15;64.12;92594.06;2064651;69;20210;-77
2022/08/27 08:33:20;;;;;;;4.20;2.60;;;;;;;22.18;64.48;92594.84;2064672;69;20168;-75
2022/08/27 08:35:47;;;;;;;2.50;2.30;;;;;;;22.17;65.21;92599.81;2064807;69;20146;-76
2022/08/27 08:38:14;;;;;;;2.50;2.17;;;;;;;22.33;62.36;92597.22;2064375;69;20219;-75
2022/08/27 08:40:42;;;;;;;4.55;2.67;;;;;;;22.40;62.63;92612.38;2064459;69;20236;-74
2022/08/27 08:43:27;;;;;;;2.95;2.38;;;;;;;22.58;60.22;92603.31;2066445;69;20570;-75
2022/08/27 08:45:56;;;;;;;4.25;3.13;;;;;;;22.60;60.68;92614.13;2064817;69;20156;-76
2022/08/27 08:48:28;;;;;;;2.92;2.65;;;;;;;22.37;60.90;92608.03;2064625;69;20597;-75
2022/08/27 08:51:06;;;;;;;3.80;2.63;;;;;;;22.43;60.58;92611.00;2064544;69;20177;-75
2022/08/27 08:53:41;;;;;;;2.97;2.67;;;;;;;22.28;60.29;92604.31;2064694;69;20144;-75
2022/08/27 08:56:11;;;;;;;3.63;2.72;;;;;;;22.72;59.50;92602.81;2064465;69;20513;-75
2022/08/27 08:58:58;;;;;;;3.78;2.55;;;;;;;22.95;57.91;92610.31;2064818;69;20175;-75
2022/08/27 09:01:25;;;;;;;4.75;3.00;;;;;;;23.33;58.02;92606.50;2064829;69;20137;-75
2022/08/27 09:04:05;;;;;;;2.60;2.40;;;;;;;23.44;57.56;92605.19;2064642;69;20168;-75
2022/08/27 09:06:51;;;;;;;5.10;2.65;;;;;;;23.65;56.06;92608.31;2064831;69;20175;-77
2022/08/27 09:09:45;;;;;;;2.55;2.35;;;;;;;23.36;55.53;92604.38;2064834;69;20144;-77
2022/08/27 09:12:23;;;;;;;2.70;2.42;;;;;;;23.54;56.62;92608.16;2064627;69;20145;-76
2022/08/27 09:15:09;;;;;;;3.13;2.47;;;;;;;23.87;56.02;92610.69;2065801;69;20218;-77
2022/08/27 09:17:35;;;;;;;3.55;2.35;;;;;;;22.81;57.03;92599.34;2067606;69;20693;-75
2022/08/27 09:20:07;;;;;;;4.32;2.47;;;;;;;22.42;58.64;92603.09;2068112;69;20218;-75
2022/08/27 09:22:49;;;;;;;3.75;2.30;;;;;;;23.03;57.38;92596.06;2068161;69;20629;-75
2022/08/27 09:25:39;;;;;;;3.85;2.13;;;;;;;23.28;57.65;92599.97;2068037;69;20171;-74
2022/08/27 09:31:19;;;;;;;3.17;2.50;;;;;;;23.75;57.51;92591.91;2068313;69;20215;-75
2022/08/27 09:33:46;;;;;;;2.40;2.20;;;;;;;23.83;58.94;92597.72;2068197;69;20152;-75
2022/08/27 09:36:16;;;;;;;2.50;2.30;;;;;;;23.92;57.41;92598.53;2068141;69;20137;-77
2022/08/27 09:38:53;;;;;;;2.53;2.10;;;;;;;24.01;55.74;92588.56;2068180;69;20235;-75
2022/08/27 09:41:25;;;;;;;2.60;2.22;;;;;;;23.73;55.69;92591.88;2067947;69;20164;-75
2022/08/27 09:44:05;;;;;;;4.03;2.35;;;;;;;23.90;54.43;92589.16;2068074;69;20176;-75
2022/08/27 09:46:32;;;;;;;3.97;2.28;;;;;;;23.76;53.79;92590.47;2067579;69;20156;-75
2022/08/27 09:49:09;;;;;;;4.13;2.40;;;;;;;23.58;54.51;92584.50;2068021;69;20557;-75
2022/08/27 09:51:41;;;;;;;3.72;2.45;;;;;;;23.47;54.54;92591.56;2068067;69;20153;-76
2022/08/27 09:54:07;;;;;;;3.35;2.40;;;;;;;23.79;53.52;92588.34;2068043;69;20177;-75
2022/08/27 09:56:36;;;;;;;4.70;2.30;;;;;;;23.37;54.21;92591.44;2067886;69;20272;-76
2022/08/27 09:59:05;;;;;;;2.38;2.10;;;;;;;22.72;56.13;92582.72;2068052;69;20544;-75
2022/08/27 10:01:33;;;;;;;2.50;2.30;;;;;;;22.45;57.04;92588.09;2068071;69;20153;-74
2022/08/27 10:04:26;;;;;;;2.15;1.92;;;;;;;23.36;55.45;92584.25;2067921;69;20221;-74
2022/08/27 10:06:52;;;;;;;2.70;2.50;;;;;;;23.36;55.68;92590.72;2067364;69;20212;-73
2022/08/27 10:09:41;;;;;;;3.95;2.42;;;;;;;23.47;55.90;92586.56;2067920;69;20243;-72
2022/08/27 10:12:34;;;;;;;3.50;2.78;;;;;;;23.07;55.90;92578.91;2067839;69;20156;-74
2022/08/27 10:15:02;;;;;;;4.00;2.53;;;;;;;22.65;57.33;92578.31;2069869;69;20163;-73
2022/08/27 10:18:02;;;;;;;2.90;2.60;;;;;;;22.42;59.14;92578.00;2067916;69;20344;-73
2022/08/27 10:20:46;;;;;;;3.28;2.75;;;;;;;22.27;58.86;92574.19;2071264;69;20144;-73
2022/08/27 10:23:31;;;;;;;4.03;2.63;;;;;;;22.95;56.90;92567.25;2071326;69;20247;-73
2022/08/27 10:26:11;;;;;;;2.83;2.55;;;;;;;22.72;57.62;92571.22;2065027;69;20249;-73
2022/08/27 10:28:52;;;;;;;4.43;3.10;;;;;;;23.15;56.63;92563.22;2071342;69;20172;-74
2022/08/27 10:31:32;;;;;;;3.25;2.78;;;;;;;23.62;54.65;92564.44;2071320;69;20172;-73
2022/08/27 10:34:02;;;;;;;4.00;2.70;;;;;;;24.05;53.07;92562.72;2071520;69;20172;-74
2022/08/27 10:36:51;;;;;;;3.80;2.50;;;;;;;24.31;52.55;92567.94;2071349;69;20574;-74
2022/08/27 10:39:17;;;;;;;2.47;2.17;;;;;;;23.78;53.43;92567.50;2071361;69;20163;-74
2022/08/27 10:42:03;;;;;;;3.83;2.35;;;;;;;24.71;50.92;92569.69;2071096;69;20164;-74
2022/08/27 10:44:44;;;;;;;3.47;2.60;;;;;;;25.16;48.50;92563.47;2068278;69;20136;-73
2022/08/27 10:47:37;;;;;;;2.78;2.25;;;;;;;25.46;47.59;92554.91;2071596;69;20180;-74
2022/08/27 10:50:40;;;;;;;2.47;2.28;;;;;;;26.05;47.24;92554.31;2071298;69;20195;-73
2022/08/27 10:53:31;;;;;;;2.60;2.40;;;;;;;26.20;46.69;92543.50;2071360;69;20617;-75
2022/08/27 10:56:35;;;;;;;2.75;2.45;;;;;;;26.48;45.43;92549.31;2071194;69;20132;-72
2022/08/27 10:59:22;;;;;;;2.13;1.75;;;;;;;25.01;48.44;92548.22;2071220;69;20148;-72
2022/08/27 11:01:53;;;;;;;3.53;2.30;;;;;;;24.72;48.76;92533.69;2071839;69;20227;-74
2022/08/27 11:04:29;;;;;;;3.55;1.90;;;;;;;25.73;47.14;92535.53;2071442;69;20171;-72
2022/08/27 11:07:01;;;;;;;2.08;1.88;;;;;;;25.94;46.09;92527.66;2072122;69;20152;-73
2022/08/27 11:09:40;;;;;;;3.63;1.70;;;;;;;25.52;47.14;92526.13;2074672;69;20194;-74
2022/08/27 11:12:09;;;;;;;3.47;1.90;;;;;;;25.24;46.52;92523.88;2071256;69;20155;-73
2022/08/27 11:14:42;;;;;;;2.13;1.73;;;;;;;25.99;45.76;92519.72;2072046;69;20347;-73
2022/08/27 11:17:14;;;;;;;2.00;1.70;;;;;;;24.80;48.53;92533.03;2073684;69;20148;-76
2022/08/27 11:20:06;;;;;;;1.70;1.60;;;;;;;25.32;46.85;92523.91;2073568;69;20160;-73
2022/08/27 11:22:35;;;;;;;2.15;1.20;;;;;;;25.55;46.12;92527.56;2070886;69;20128;-74
2022/08/27 11:25:07;;;;;;;1.83;1.48;;;;;;;25.41;45.62;92518.16;2075002;69;20176;-74
2022/08/27 11:27:34;;;;;;;1.60;1.50;;;;;;;25.68;45.76;92516.78;2074208;69;20198;-74
2022/08/27 11:30:27;;;;;;;1.60;1.50;;;;;;;26.32;45.74;92514.66;2072980;69;20196;-74
2022/08/27 11:32:52;;;;;;;3.45;1.65;;;;;;;26.48;45.79;92516.81;2055308;69;20574;-73
2022/08/27 11:35:34;;;;;;;2.08;1.70;;;;;;;26.68;44.67;92508.13;2055377;69;20280;-74
2022/08/27 11:38:18;;;;;;;1.73;1.30;;;;;;;26.93;44.18;92510.94;2054971;69;20142;-73
2022/08/27 11:41:13;;;;;;;1.95;1.70;;;;;;;27.40;42.02;92499.94;2055193;69;20184;-74
2022/08/27 11:43:43;;;;;;;3.65;2.10;;;;;;;28.25;40.76;92495.75;2053758;69;20178;-74
2022/08/27 11:46:11;;;;;;;1.85;1.60;;;;;;;28.45;40.12;92497.03;2053933;69;20149;-74
2022/08/27 11:48:42;;;;;;;1.60;1.50;;;;;;;28.33;39.37;92492.78;2052625;69;20216;-74
2022/08/27 11:51:24;;;;;;;1.97;1.57;;;;;;;27.74;40.12;92492.53;2056917;69;20150;-75
2022/08/27 11:54:00;;;;;;;2.13;1.40;;;;;;;28.10;39.13;92498.06;2057447;69;20335;-74